createdAt,value
2018-06-19T00:00:13.940Z,22.20
2018-06-19T00:00:45.961Z,22.20
2018-06-19T00:01:18.003Z,22.20
2018-06-19T00:01:50.024Z,22.20
2018-06-19T00:02:22.059Z,22.20
2018-06-19T00:02:54.088Z,22.20
2018-06-19T00:03:26.096Z,22.30
2018-06-19T00:03:58.123Z,22.30
2018-06-19T00:04:30.148Z,22.30
2018-06-19T00:05:02.159Z,22.30
2018-06-19T00:05:34.173Z,22.30
2018-06-19T00:06:06.188Z,22.30
2018-06-19T00:06:38.201Z,22.30
2018-06-19T00:07:10.225Z,22.20
2018-06-19T00:07:42.325Z,22.20
2018-06-19T00:08:14.337Z,22.20
2018-06-19T00:08:46.358Z,22.10
2018-06-19T00:09:50.670Z,22.10
2018-06-19T00:10:22.702Z,22.10
2018-06-19T00:10:54.708Z,22.10
2018-06-19T00:11:26.760Z,22.10
2018-06-19T00:11:58.787Z,22.10
2018-06-19T00:12:30.808Z,22.20
2018-06-19T00:13:02.820Z,22.20
2018-06-19T00:13:34.828Z,22.20
2018-06-19T00:14:06.832Z,22.20
2018-06-19T00:14:38.847Z,22.20
2018-06-19T00:15:10.862Z,22.20
2018-06-19T00:15:42.880Z,22.20
2018-06-19T00:16:14.887Z,22.20
2018-06-19T00:16:46.932Z,22.30
2018-06-19T00:17:19.029Z,22.30
2018-06-19T00:17:51.040Z,22.30
2018-06-19T00:18:23.050Z,22.30
2018-06-19T00:18:55.091Z,22.30
2018-06-19T00:19:27.107Z,22.30
2018-06-19T00:19:59.135Z,22.30
2018-06-19T00:20:31.145Z,22.30
2018-06-19T00:21:03.160Z,22.30
2018-06-19T00:21:35.175Z,22.30
2018-06-19T00:22:07.222Z,22.30
2018-06-19T00:22:39.227Z,22.30
2018-06-19T00:23:11.246Z,22.40
2018-06-19T00:23:43.259Z,22.40
2018-06-19T00:24:15.271Z,22.40
2018-06-19T00:24:47.336Z,22.40
2018-06-19T00:25:19.355Z,22.40
2018-06-19T00:25:51.369Z,22.40
2018-06-19T00:26:23.416Z,22.40
2018-06-19T00:26:55.427Z,22.40
2018-06-19T00:27:27.461Z,22.40
2018-06-19T00:27:59.474Z,22.50
2018-06-19T00:28:31.505Z,22.40
2018-06-19T00:29:03.550Z,22.40
2018-06-19T00:29:35.571Z,22.40
2018-06-19T00:30:07.577Z,22.40
2018-06-19T00:30:39.615Z,22.40
2018-06-19T00:31:11.625Z,22.30
2018-06-19T00:32:15.932Z,22.30
2018-06-19T00:32:47.942Z,22.30
2018-06-19T00:33:19.958Z,22.30
2018-06-19T00:33:51.981Z,22.30
2018-06-19T00:34:23.994Z,22.30
2018-06-19T00:34:56.003Z,22.30
2018-06-19T00:35:28.031Z,22.20
2018-06-19T00:36:00.031Z,22.20
2018-06-19T00:36:32.075Z,22.20
2018-06-19T00:37:04.083Z,22.10
2018-06-19T00:37:36.091Z,22.10
2018-06-19T00:38:08.110Z,22.10
2018-06-19T00:38:40.150Z,22.10
2018-06-19T00:39:12.185Z,22.10
2018-06-19T00:39:44.258Z,22.10
2018-06-19T00:40:16.331Z,22.10
2018-06-19T00:40:48.346Z,22.10
2018-06-19T00:41:20.358Z,22.10
2018-06-19T00:41:52.387Z,22.10
2018-06-19T00:42:24.393Z,22.10
2018-06-19T00:42:56.407Z,22.00
2018-06-19T00:43:28.425Z,22.00
2018-06-19T00:44:00.488Z,22.00
2018-06-19T00:44:32.505Z,22.10
2018-06-19T00:45:04.516Z,22.00
2018-06-19T00:45:36.524Z,22.00
2018-06-19T00:46:08.555Z,22.00
2018-06-19T00:46:40.559Z,22.00
2018-06-19T00:47:12.591Z,22.00
2018-06-19T00:47:44.615Z,22.00
2018-06-19T00:48:16.620Z,21.90
2018-06-19T00:48:48.623Z,21.90
2018-06-19T00:49:20.684Z,21.90
2018-06-19T00:49:52.691Z,21.90
2018-06-19T00:50:24.696Z,21.90
2018-06-19T00:50:56.714Z,21.90
2018-06-19T00:51:28.742Z,21.90
2018-06-19T00:52:00.766Z,22.00
2018-06-19T00:52:32.771Z,21.90
2018-06-19T00:53:04.777Z,21.90
2018-06-19T00:53:36.791Z,21.90
2018-06-19T00:54:08.812Z,21.90
2018-06-19T00:54:40.827Z,21.90
2018-06-19T00:55:12.831Z,21.90
2018-06-19T00:55:44.866Z,22.00
2018-06-19T00:56:16.975Z,21.90
2018-06-19T00:56:48.983Z,21.90
2018-06-19T00:57:21.007Z,21.90
2018-06-19T00:57:53.040Z,21.90
2018-06-19T00:58:25.030Z,22.00
2018-06-19T00:58:57.038Z,22.00
2018-06-19T00:59:29.059Z,22.00
2018-06-19T01:00:01.070Z,22.00
2018-06-19T01:00:33.114Z,22.00
2018-06-19T01:01:05.124Z,22.00
2018-06-19T01:01:37.134Z,21.90
2018-06-19T01:02:09.140Z,21.90
2018-06-19T01:02:41.160Z,21.90
2018-06-19T01:03:13.178Z,21.80
2018-06-19T01:03:45.223Z,21.80
2018-06-19T01:04:17.326Z,21.90
2018-06-19T01:04:49.338Z,21.90
2018-06-19T01:05:21.370Z,21.90
2018-06-19T01:05:53.364Z,21.90
2018-06-19T01:06:25.393Z,22.00
2018-06-19T01:06:57.422Z,22.00
2018-06-19T01:07:29.422Z,21.90
2018-06-19T01:08:01.454Z,21.90
2018-06-19T01:08:33.462Z,21.90
2018-06-19T01:09:05.501Z,21.90
2018-06-19T01:09:37.519Z,21.90
2018-06-19T01:10:09.548Z,21.90
2018-06-19T01:10:41.557Z,21.90
2018-06-19T01:11:13.574Z,21.90
2018-06-19T01:11:45.596Z,21.90
2018-06-19T01:12:17.629Z,21.90
2018-06-19T01:12:49.639Z,21.80
2018-06-19T01:13:21.650Z,21.80
2018-06-19T01:13:53.666Z,21.80
2018-06-19T01:14:25.909Z,21.80
2018-06-19T01:14:57.918Z,21.80
2018-06-19T01:15:29.942Z,21.80
2018-06-19T01:16:01.962Z,21.70
2018-06-19T01:16:33.972Z,21.70
2018-06-19T01:17:05.985Z,21.70
2018-06-19T01:17:37.978Z,21.70
2018-06-19T01:18:10.005Z,21.60
2018-06-19T01:18:42.024Z,21.60
2018-06-19T01:19:14.034Z,21.60
2018-06-19T01:19:46.063Z,21.60
2018-06-19T01:20:18.076Z,21.70
2018-06-19T01:20:50.078Z,21.60
2018-06-19T01:21:22.162Z,21.60
2018-06-19T01:21:54.170Z,21.60
2018-06-19T01:22:26.185Z,21.60
2018-06-19T01:22:58.204Z,21.60
2018-06-19T01:23:30.224Z,21.60
2018-06-19T01:24:02.254Z,21.60
2018-06-19T01:24:34.274Z,21.60
2018-06-19T01:25:06.301Z,21.60
2018-06-19T01:25:38.322Z,21.60
2018-06-19T01:26:10.358Z,21.60
2018-06-19T01:26:42.385Z,21.60
2018-06-19T01:27:14.413Z,21.60
2018-06-19T01:27:46.419Z,21.60
2018-06-19T01:28:18.442Z,21.60
2018-06-19T01:28:50.450Z,21.50
2018-06-19T01:29:22.482Z,21.50
2018-06-19T01:29:54.488Z,21.50
2018-06-19T01:30:26.504Z,21.40
2018-06-19T01:30:58.507Z,21.50
2018-06-19T01:31:30.568Z,21.50
2018-06-19T01:32:02.589Z,21.50
2018-06-19T01:32:34.605Z,21.50
2018-06-19T01:33:06.621Z,21.50
2018-06-19T01:33:38.662Z,21.50
2018-06-19T01:34:10.682Z,21.50
2018-06-19T01:34:42.717Z,21.40
2018-06-19T01:35:14.724Z,21.50
2018-06-19T01:35:46.775Z,21.50
2018-06-19T01:36:18.770Z,21.50
2018-06-19T01:36:50.784Z,21.50
2018-06-19T01:37:22.825Z,21.50
2018-06-19T01:37:54.842Z,21.50
2018-06-19T01:38:26.846Z,21.40
2018-06-19T01:38:58.856Z,21.50
2018-06-19T01:39:30.862Z,21.40
2018-06-19T01:40:02.877Z,21.40
2018-06-19T01:40:34.928Z,21.40
2018-06-19T01:41:06.926Z,21.40
2018-06-19T01:41:38.935Z,21.40
2018-06-19T01:42:10.939Z,21.40
2018-06-19T01:42:42.979Z,21.40
2018-06-19T01:43:14.996Z,21.40
2018-06-19T01:43:47.013Z,21.40
2018-06-19T01:44:19.029Z,21.40
2018-06-19T01:44:51.042Z,21.40
2018-06-19T01:45:23.071Z,21.40
2018-06-19T01:45:55.083Z,21.40
2018-06-19T01:46:27.113Z,21.40
2018-06-19T01:46:59.110Z,21.40
2018-06-19T01:47:31.110Z,21.40
2018-06-19T01:48:03.151Z,21.40
2018-06-19T01:48:35.154Z,21.40
2018-06-19T01:49:07.160Z,21.40
2018-06-19T01:49:39.453Z,21.40
2018-06-19T01:50:11.458Z,21.40
2018-06-19T01:50:43.520Z,21.40
2018-06-19T01:51:15.509Z,21.40
2018-06-19T01:51:47.519Z,21.30
2018-06-19T01:52:19.551Z,21.30
2018-06-19T01:52:51.600Z,21.30
2018-06-19T01:53:23.583Z,21.30
2018-06-19T01:53:55.611Z,21.30
2018-06-19T01:54:27.623Z,21.30
2018-06-19T01:54:59.639Z,21.30
2018-06-19T01:55:31.652Z,21.30
2018-06-19T01:56:03.667Z,21.30
2018-06-19T01:56:35.696Z,21.30
2018-06-19T01:57:07.714Z,21.30
2018-06-19T01:57:39.723Z,21.30
2018-06-19T01:58:11.730Z,21.30
2018-06-19T01:58:43.747Z,21.30
2018-06-19T01:59:15.767Z,21.30
2018-06-19T01:59:47.811Z,21.40
2018-06-19T02:00:19.829Z,21.40
2018-06-19T02:00:51.862Z,21.40
2018-06-19T02:01:23.857Z,21.40
2018-06-19T02:01:55.874Z,21.40
2018-06-19T02:02:27.892Z,21.40
2018-06-19T02:02:59.905Z,21.40
2018-06-19T02:03:31.898Z,21.40
2018-06-19T02:04:03.924Z,21.40
2018-06-19T02:04:35.941Z,21.40
2018-06-19T02:05:07.951Z,21.40
2018-06-19T02:05:39.963Z,21.40
2018-06-19T02:06:11.974Z,21.40
2018-06-19T02:06:43.977Z,21.40
2018-06-19T02:07:16.016Z,21.40
2018-06-19T02:07:48.024Z,21.40
2018-06-19T02:08:20.036Z,21.40
2018-06-19T02:08:52.086Z,21.40
2018-06-19T02:09:24.086Z,21.40
2018-06-19T02:09:56.458Z,21.40
2018-06-19T02:10:28.660Z,21.40
2018-06-19T02:11:00.987Z,21.40
2018-06-19T02:11:33.118Z,21.40
2018-06-19T02:12:05.104Z,21.30
2018-06-19T02:12:37.135Z,21.30
2018-06-19T02:13:09.163Z,21.30
2018-06-19T02:13:41.205Z,21.30
2018-06-19T02:14:13.216Z,21.30
2018-06-19T02:14:45.218Z,21.40
2018-06-19T02:15:17.232Z,21.40
2018-06-19T02:15:49.270Z,21.40
2018-06-19T02:16:21.283Z,21.50
2018-06-19T02:16:53.306Z,21.50
2018-06-19T02:17:25.314Z,21.50
2018-06-19T02:17:57.341Z,21.60
2018-06-19T02:18:29.369Z,21.60
2018-06-19T02:19:01.453Z,21.60
2018-06-19T02:19:33.466Z,21.60
2018-06-19T02:20:05.514Z,21.60
2018-06-19T02:20:37.521Z,21.60
2018-06-19T02:21:09.559Z,21.60
2018-06-19T02:21:41.566Z,21.60
2018-06-19T02:22:13.622Z,21.60
2018-06-19T02:22:45.610Z,21.50
2018-06-19T02:23:17.623Z,21.50
2018-06-19T02:23:49.670Z,21.50
2018-06-19T02:24:21.658Z,21.40
2018-06-19T02:24:53.709Z,21.40
2018-06-19T02:25:25.710Z,21.40
2018-06-19T02:25:57.722Z,21.40
2018-06-19T02:26:29.736Z,21.30
2018-06-19T02:27:01.735Z,21.40
2018-06-19T02:27:33.762Z,21.40
2018-06-19T02:28:05.762Z,21.40
2018-06-19T02:28:37.783Z,21.50
2018-06-19T02:29:09.818Z,21.50
2018-06-19T02:29:41.826Z,21.50
2018-06-19T02:30:13.888Z,21.60
2018-06-19T02:30:45.878Z,21.60
2018-06-19T02:31:17.912Z,21.60
2018-06-19T02:31:49.928Z,21.60
2018-06-19T02:32:21.947Z,21.70
2018-06-19T02:32:53.970Z,21.70
2018-06-19T02:33:26.014Z,21.70
2018-06-19T02:33:58.023Z,21.70
2018-06-19T02:34:30.038Z,21.70
2018-06-19T02:35:02.046Z,21.80
2018-06-19T02:35:34.143Z,21.80
2018-06-19T02:36:06.254Z,21.80
2018-06-19T02:36:38.266Z,21.80
2018-06-19T02:37:10.308Z,21.80
2018-06-19T02:37:42.306Z,21.80
2018-06-19T02:38:14.319Z,21.80
2018-06-19T02:38:46.461Z,21.80
2018-06-19T02:39:18.476Z,21.80
2018-06-19T02:39:50.488Z,21.80
2018-06-19T02:40:22.521Z,21.80
2018-06-19T02:40:54.543Z,21.80
2018-06-19T02:41:26.555Z,21.80
2018-06-19T02:41:58.566Z,21.80
2018-06-19T02:42:30.606Z,21.80
2018-06-19T02:43:02.622Z,21.80
2018-06-19T02:43:34.653Z,21.80
2018-06-19T02:44:06.666Z,21.70
2018-06-19T02:44:38.705Z,21.70
2018-06-19T02:45:10.722Z,21.70
2018-06-19T02:45:42.744Z,21.70
2018-06-19T02:46:14.778Z,21.70
2018-06-19T02:46:46.774Z,21.70
2018-06-19T02:47:18.796Z,21.70
2018-06-19T02:47:50.814Z,21.70
2018-06-19T02:48:22.818Z,21.70
2018-06-19T02:48:54.827Z,21.60
2018-06-19T02:49:26.835Z,21.70
2018-06-19T02:49:58.869Z,21.70
2018-06-19T02:50:30.875Z,21.60
2018-06-19T02:51:02.888Z,21.60
2018-06-19T02:51:34.895Z,21.60
2018-06-19T02:52:06.910Z,21.60
2018-06-19T02:52:38.953Z,21.60
2018-06-19T02:53:10.961Z,21.60
2018-06-19T02:53:42.970Z,21.60
2018-06-19T02:54:14.993Z,21.60
2018-06-19T02:54:47.022Z,21.60
2018-06-19T02:55:19.058Z,21.60
2018-06-19T02:55:51.069Z,21.60
2018-06-19T02:56:23.082Z,21.50
2018-06-19T02:56:55.132Z,21.50
2018-06-19T02:57:27.157Z,21.50
2018-06-19T02:57:59.196Z,21.50
2018-06-19T02:58:31.233Z,21.50
2018-06-19T02:59:03.250Z,21.50
2018-06-19T02:59:35.279Z,21.50
2018-06-19T03:00:07.297Z,21.60
2018-06-19T03:00:39.307Z,21.50
2018-06-19T03:01:11.333Z,21.50
2018-06-19T03:01:43.358Z,21.50
2018-06-19T03:02:15.401Z,21.50
2018-06-19T03:02:47.399Z,21.40
2018-06-19T03:03:19.420Z,21.40
2018-06-19T03:03:51.435Z,21.40
2018-06-19T03:04:23.461Z,21.40
2018-06-19T03:04:55.487Z,21.30
2018-06-19T03:05:27.492Z,21.30
2018-06-19T03:05:59.504Z,21.30
2018-06-19T03:06:31.519Z,21.30
2018-06-19T03:07:03.532Z,21.30
2018-06-19T03:07:35.546Z,21.30
2018-06-19T03:08:07.560Z,21.30
2018-06-19T03:08:39.568Z,21.30
2018-06-19T03:09:11.617Z,21.30
2018-06-19T03:09:43.617Z,21.30
2018-06-19T03:10:15.620Z,21.30
2018-06-19T03:10:47.642Z,21.30
2018-06-19T03:11:19.678Z,21.30
2018-06-19T03:11:51.687Z,21.30
2018-06-19T03:12:23.698Z,21.30
2018-06-19T03:12:55.723Z,21.30
2018-06-19T03:13:27.731Z,21.30
2018-06-19T03:13:59.744Z,21.30
2018-06-19T03:14:31.780Z,21.30
2018-06-19T03:15:03.796Z,21.30
2018-06-19T03:15:35.820Z,21.30
2018-06-19T03:16:07.831Z,21.30
2018-06-19T03:16:39.838Z,21.30
2018-06-19T03:17:11.860Z,21.30
2018-06-19T03:17:43.877Z,21.30
2018-06-19T03:18:15.911Z,21.30
2018-06-19T03:18:47.991Z,21.30
2018-06-19T03:19:19.990Z,21.30
2018-06-19T03:19:52.094Z,21.30
2018-06-19T03:20:24.125Z,21.30
2018-06-19T03:20:56.129Z,21.30
2018-06-19T03:21:28.245Z,21.20
2018-06-19T03:22:00.291Z,21.20
2018-06-19T03:22:32.300Z,21.30
2018-06-19T03:23:04.335Z,21.20
2018-06-19T03:23:36.348Z,21.20
2018-06-19T03:24:08.352Z,21.20
2018-06-19T03:24:40.366Z,21.20
2018-06-19T03:25:12.376Z,21.20
2018-06-19T03:25:44.424Z,21.20
2018-06-19T03:26:16.442Z,21.20
2018-06-19T03:26:48.539Z,21.20
2018-06-19T03:27:20.553Z,21.20
2018-06-19T03:27:52.562Z,21.20
2018-06-19T03:28:24.585Z,21.20
2018-06-19T03:28:56.594Z,21.30
2018-06-19T03:29:28.606Z,21.30
2018-06-19T03:30:00.632Z,21.30
2018-06-19T03:30:32.650Z,21.30
2018-06-19T03:31:04.679Z,21.30
2018-06-19T03:31:36.678Z,21.30
2018-06-19T03:32:08.699Z,21.40
2018-06-19T03:32:40.727Z,21.40
2018-06-19T03:33:12.741Z,21.40
2018-06-19T03:33:44.775Z,21.40
2018-06-19T03:34:16.788Z,21.50
2018-06-19T03:34:48.808Z,21.50
2018-06-19T03:35:20.821Z,21.50
2018-06-19T03:35:52.848Z,21.60
2018-06-19T03:36:24.861Z,21.60
2018-06-19T03:36:56.871Z,21.60
2018-06-19T03:37:28.878Z,21.60
2018-06-19T03:38:00.899Z,21.70
2018-06-19T03:38:32.910Z,21.70
2018-06-19T03:39:04.927Z,21.70
2018-06-19T03:39:36.933Z,21.70
2018-06-19T03:40:08.934Z,21.70
2018-06-19T03:40:40.953Z,21.70
2018-06-19T03:41:12.982Z,21.70
2018-06-19T03:41:44.987Z,21.60
2018-06-19T03:42:17.007Z,21.60
2018-06-19T03:42:49.025Z,21.60
2018-06-19T03:43:21.046Z,21.60
2018-06-19T03:43:53.064Z,21.50
2018-06-19T03:44:25.078Z,21.50
2018-06-19T03:44:57.089Z,21.50
2018-06-19T03:45:29.106Z,21.40
2018-06-19T03:46:01.145Z,21.40
2018-06-19T03:46:33.148Z,21.40
2018-06-19T03:47:05.155Z,21.40
2018-06-19T03:47:37.167Z,21.40
2018-06-19T03:48:09.202Z,21.40
2018-06-19T03:48:41.215Z,21.40
2018-06-19T03:49:13.237Z,21.40
2018-06-19T03:49:45.258Z,21.40
2018-06-19T03:50:17.307Z,21.40
2018-06-19T03:50:49.294Z,21.40
2018-06-19T03:51:21.317Z,21.40
2018-06-19T03:51:53.333Z,21.40
2018-06-19T03:52:25.345Z,21.40
2018-06-19T03:52:57.378Z,21.40
2018-06-19T03:53:29.390Z,21.30
2018-06-19T03:54:01.399Z,21.40
2018-06-19T03:54:33.397Z,21.40
2018-06-19T03:55:05.441Z,21.40
2018-06-19T03:55:37.459Z,21.40
2018-06-19T03:56:09.495Z,21.30
2018-06-19T03:56:41.555Z,21.30
2018-06-19T03:57:13.594Z,21.30
2018-06-19T03:57:45.598Z,21.30
2018-06-19T03:58:17.609Z,21.30
2018-06-19T03:58:49.614Z,21.30
2018-06-19T03:59:21.618Z,21.40
2018-06-19T03:59:53.635Z,21.30
2018-06-19T04:00:25.677Z,21.40
2018-06-19T04:00:57.691Z,21.50
2018-06-19T04:01:29.695Z,21.40
2018-06-19T04:02:01.713Z,21.40
2018-06-19T04:02:33.787Z,21.40
2018-06-19T04:03:05.815Z,21.40
2018-06-19T04:03:37.827Z,21.40
2018-06-19T04:04:09.850Z,21.40
2018-06-19T04:04:41.890Z,21.40
2018-06-19T04:05:13.905Z,21.40
2018-06-19T04:05:45.922Z,21.40
2018-06-19T04:06:17.943Z,21.50
2018-06-19T04:06:49.967Z,21.40
2018-06-19T04:07:21.974Z,21.50
2018-06-19T04:07:53.975Z,21.50
2018-06-19T04:08:25.990Z,21.50
2018-06-19T04:08:57.999Z,21.40
2018-06-19T04:09:30.030Z,21.50
2018-06-19T04:10:02.034Z,21.50
2018-06-19T04:10:34.126Z,21.40
2018-06-19T04:11:06.066Z,21.40
2018-06-19T04:11:38.103Z,21.40
2018-06-19T04:12:10.154Z,21.40
2018-06-19T04:12:42.223Z,21.40
2018-06-19T04:13:14.259Z,21.40
2018-06-19T04:13:46.358Z,21.20
2018-06-19T04:14:18.345Z,21.00
2018-06-19T04:14:50.358Z,20.80
2018-06-19T04:15:22.367Z,20.60
2018-06-19T04:15:54.395Z,20.50
2018-06-19T04:16:26.404Z,20.40
2018-06-19T04:16:58.409Z,20.30
2018-06-19T04:17:30.428Z,20.20
2018-06-19T04:18:02.445Z,20.20
2018-06-19T04:18:34.465Z,20.10
2018-06-19T04:19:06.474Z,20.10
2018-06-19T04:19:38.524Z,20.10
2018-06-19T04:20:10.554Z,20.10
2018-06-19T04:20:42.553Z,20.00
2018-06-19T04:21:14.599Z,20.00
2018-06-19T04:21:46.610Z,20.00
2018-06-19T04:22:18.646Z,19.90
2018-06-19T04:22:50.668Z,19.90
2018-06-19T04:23:22.682Z,19.90
2018-06-19T04:23:54.693Z,19.90
2018-06-19T04:24:26.724Z,19.90
2018-06-19T04:24:58.737Z,19.90
2018-06-19T04:25:30.840Z,19.90
2018-06-19T04:26:02.851Z,19.90
2018-06-19T04:26:34.889Z,19.90
2018-06-19T04:27:06.908Z,19.90
2018-06-19T04:27:38.911Z,19.80
2018-06-19T04:28:10.948Z,19.90
2018-06-19T04:28:42.971Z,19.90
2018-06-19T04:29:14.979Z,19.90
2018-06-19T04:29:46.994Z,19.80
2018-06-19T04:30:19.017Z,19.80
2018-06-19T04:30:51.057Z,19.80
2018-06-19T04:31:23.086Z,19.80
2018-06-19T04:31:55.113Z,19.90
2018-06-19T04:32:27.138Z,19.90
2018-06-19T04:32:59.170Z,19.90
2018-06-19T04:33:31.192Z,19.90
2018-06-19T04:34:03.194Z,19.90
2018-06-19T04:34:35.220Z,19.90
2018-06-19T04:35:07.239Z,20.10
2018-06-19T04:35:39.252Z,20.30
2018-06-19T04:36:12.325Z,20.40
2018-06-19T04:36:45.661Z,20.50
2018-06-19T04:37:17.679Z,20.60
2018-06-19T04:37:49.682Z,20.70
2018-06-19T04:38:21.707Z,20.80
2018-06-19T04:38:53.705Z,20.80
2018-06-19T04:39:25.735Z,20.90
2018-06-19T04:39:57.745Z,20.90
2018-06-19T04:40:29.780Z,21.00
2018-06-19T04:41:01.795Z,21.10
2018-06-19T04:41:33.820Z,21.10
2018-06-19T04:42:05.915Z,21.10
2018-06-19T04:42:37.922Z,21.10
2018-06-19T04:43:09.936Z,21.10
2018-06-19T04:43:41.953Z,21.10
2018-06-19T04:44:13.981Z,21.10
2018-06-19T04:44:46.172Z,21.20
2018-06-19T04:45:18.197Z,21.20
2018-06-19T04:45:50.217Z,21.20
2018-06-19T04:46:22.226Z,21.10
2018-06-19T04:46:54.264Z,21.10
2018-06-19T04:47:26.264Z,21.10
2018-06-19T04:47:58.298Z,21.10
2018-06-19T04:48:30.310Z,21.20
2018-06-19T04:49:02.320Z,21.20
2018-06-19T04:49:34.342Z,21.20
2018-06-19T04:50:06.398Z,21.30
2018-06-19T04:50:38.387Z,21.20
2018-06-19T04:51:10.397Z,21.30
2018-06-19T04:51:42.423Z,21.20
2018-06-19T04:52:14.451Z,21.10
2018-06-19T04:52:46.470Z,21.10
2018-06-19T04:53:18.476Z,21.10
2018-06-19T04:53:50.494Z,21.20
2018-06-19T04:54:22.498Z,21.20
2018-06-19T04:54:54.597Z,21.20
2018-06-19T04:55:26.609Z,21.20
2018-06-19T04:55:58.636Z,21.30
2018-06-19T04:56:30.660Z,21.30
2018-06-19T04:57:02.678Z,21.30
2018-06-19T04:57:34.690Z,21.30
2018-06-19T04:58:06.703Z,21.30
2018-06-19T04:58:38.713Z,21.20
2018-06-19T04:59:10.742Z,21.30
2018-06-19T04:59:42.758Z,21.30
2018-06-19T05:00:14.844Z,21.20
2018-06-19T05:00:46.831Z,21.20
2018-06-19T05:01:18.846Z,21.20
2018-06-19T05:01:50.854Z,21.20
2018-06-19T05:02:22.867Z,21.20
2018-06-19T05:02:54.887Z,21.30
2018-06-19T05:03:26.954Z,21.20
2018-06-19T05:03:58.969Z,21.20
2018-06-19T05:04:30.977Z,21.20
2018-06-19T05:05:02.994Z,21.20
2018-06-19T05:05:35.024Z,21.20
2018-06-19T05:06:07.034Z,21.30
2018-06-19T05:06:39.046Z,21.20
2018-06-19T05:07:11.056Z,21.30
2018-06-19T05:07:43.078Z,21.30
2018-06-19T05:08:15.109Z,21.30
2018-06-19T05:08:47.124Z,21.30
2018-06-19T05:09:19.127Z,21.30
2018-06-19T05:09:51.161Z,21.40
2018-06-19T05:10:23.174Z,21.40
2018-06-19T05:10:55.191Z,21.40
2018-06-19T05:11:59.471Z,21.50
2018-06-19T05:12:31.521Z,21.40
2018-06-19T05:13:03.527Z,21.50
2018-06-19T05:13:35.563Z,21.50
2018-06-19T05:14:07.582Z,21.40
2018-06-19T05:14:39.582Z,21.50
2018-06-19T05:15:11.591Z,21.50
2018-06-19T05:15:43.636Z,21.50
2018-06-19T05:16:15.643Z,21.40
2018-06-19T05:16:47.680Z,21.40
2018-06-19T05:17:19.692Z,21.40
2018-06-19T05:17:51.709Z,21.40
2018-06-19T05:18:23.718Z,21.30
2018-06-19T05:18:55.743Z,21.30
2018-06-19T05:19:27.742Z,21.30
2018-06-19T05:19:59.760Z,21.30
2018-06-19T05:20:31.781Z,21.30
2018-06-19T05:21:03.794Z,21.40
2018-06-19T05:21:35.799Z,21.40
2018-06-19T05:22:07.813Z,21.40
2018-06-19T05:22:39.845Z,21.40
2018-06-19T05:23:11.861Z,21.30
2018-06-19T05:23:43.896Z,21.30
2018-06-19T05:24:15.910Z,21.30
2018-06-19T05:24:47.921Z,21.40
2018-06-19T05:25:19.938Z,21.40
2018-06-19T05:25:51.971Z,21.40
2018-06-19T05:26:23.974Z,21.40
2018-06-19T05:26:56.096Z,21.30
2018-06-19T05:27:28.071Z,21.30
2018-06-19T05:28:00.112Z,21.30
2018-06-19T05:28:32.115Z,21.30
2018-06-19T05:29:04.127Z,21.30
2018-06-19T05:29:36.142Z,21.30
2018-06-19T05:30:08.182Z,21.30
2018-06-19T05:30:40.183Z,21.30
2018-06-19T05:31:12.209Z,21.30
2018-06-19T05:31:44.220Z,21.30
2018-06-19T05:32:16.233Z,21.30
2018-06-19T05:32:48.248Z,21.30
2018-06-19T05:33:20.262Z,21.30
2018-06-19T05:33:52.279Z,21.30
2018-06-19T05:34:24.288Z,21.30
2018-06-19T05:34:56.311Z,21.30
2018-06-19T05:35:28.315Z,21.30
2018-06-19T05:36:00.328Z,21.40
2018-06-19T05:36:32.361Z,21.40
2018-06-19T05:37:04.411Z,21.50
2018-06-19T05:37:36.419Z,21.50
2018-06-19T05:38:08.431Z,21.50
2018-06-19T05:38:40.439Z,21.40
2018-06-19T05:39:12.454Z,21.40
2018-06-19T05:39:44.479Z,21.40
2018-06-19T05:40:16.518Z,21.40
2018-06-19T05:40:48.586Z,21.40
2018-06-19T05:41:20.618Z,21.40
2018-06-19T05:41:52.643Z,21.40
2018-06-19T05:42:24.654Z,21.40
2018-06-19T05:42:56.661Z,21.30
2018-06-19T05:43:28.683Z,21.30
2018-06-19T05:44:00.706Z,21.30
2018-06-19T05:44:32.733Z,21.30
2018-06-19T05:45:04.752Z,21.30
2018-06-19T05:45:36.759Z,21.30
2018-06-19T05:46:08.793Z,21.30
2018-06-19T05:46:40.827Z,21.30
2018-06-19T05:47:12.855Z,21.30
2018-06-19T05:47:44.864Z,21.30
2018-06-19T05:48:16.890Z,21.40
2018-06-19T05:48:48.933Z,21.40
2018-06-19T05:49:20.934Z,21.40
2018-06-19T05:49:52.938Z,21.40
2018-06-19T05:50:24.967Z,21.30
2018-06-19T05:50:57.019Z,21.40
2018-06-19T05:51:29.039Z,21.40
2018-06-19T05:52:01.058Z,21.30
2018-06-19T05:52:33.081Z,21.30
2018-06-19T05:53:05.128Z,21.20
2018-06-19T05:53:37.129Z,21.20
2018-06-19T05:54:09.143Z,21.20
2018-06-19T05:54:41.165Z,21.20
2018-06-19T05:55:13.192Z,21.20
2018-06-19T05:55:45.213Z,21.20
2018-06-19T05:56:17.296Z,21.20
2018-06-19T05:56:49.275Z,21.20
2018-06-19T05:57:21.305Z,21.30
2018-06-19T05:57:53.302Z,21.30
2018-06-19T05:58:25.325Z,21.30
2018-06-19T05:58:57.346Z,21.30
2018-06-19T05:59:29.360Z,21.30
2018-06-19T06:00:01.378Z,21.30
2018-06-19T06:00:33.386Z,21.30
2018-06-19T06:01:05.394Z,21.30
2018-06-19T06:01:37.410Z,21.30
2018-06-19T06:02:09.451Z,21.30
2018-06-19T06:02:41.470Z,21.30
2018-06-19T06:03:13.480Z,21.30
2018-06-19T06:04:17.800Z,21.40
2018-06-19T06:04:49.806Z,21.50
2018-06-19T06:05:21.815Z,21.50
2018-06-19T06:05:53.997Z,21.50
2018-06-19T06:06:25.836Z,21.50
2018-06-19T06:06:57.862Z,21.50
2018-06-19T06:07:29.889Z,21.50
2018-06-19T06:08:01.914Z,21.50
2018-06-19T06:08:33.918Z,21.50
2018-06-19T06:09:05.947Z,21.50
2018-06-19T06:09:37.948Z,21.60
2018-06-19T06:10:09.974Z,21.50
2018-06-19T06:10:41.993Z,21.50
2018-06-19T06:11:14.062Z,21.50
2018-06-19T06:11:46.017Z,21.50
2018-06-19T06:12:18.067Z,21.40
2018-06-19T06:12:50.078Z,21.40
2018-06-19T06:13:22.100Z,21.40
2018-06-19T06:13:54.111Z,21.40
2018-06-19T06:14:26.138Z,21.40
2018-06-19T06:14:58.164Z,21.40
2018-06-19T06:15:30.224Z,21.40
2018-06-19T06:16:02.196Z,21.40
2018-06-19T06:16:34.281Z,21.40
2018-06-19T06:17:06.230Z,21.40
2018-06-19T06:17:38.246Z,21.50
2018-06-19T06:18:10.288Z,21.40
2018-06-19T06:18:42.268Z,21.40
2018-06-19T06:19:14.309Z,21.40
2018-06-19T06:19:46.312Z,21.30
2018-06-19T06:20:18.332Z,21.30
2018-06-19T06:20:50.344Z,21.30
2018-06-19T06:21:22.357Z,21.40
2018-06-19T06:21:54.378Z,21.40
2018-06-19T06:22:26.456Z,21.40
2018-06-19T06:22:58.487Z,21.40
2018-06-19T06:23:30.527Z,21.40
2018-06-19T06:24:02.541Z,21.40
2018-06-19T06:24:34.627Z,21.40
2018-06-19T06:25:06.659Z,21.40
2018-06-19T06:25:38.710Z,21.40
2018-06-19T06:26:10.715Z,21.40
2018-06-19T06:26:42.735Z,21.40
2018-06-19T06:27:14.764Z,21.40
2018-06-19T06:27:46.767Z,21.50
2018-06-19T06:28:18.786Z,21.50
2018-06-19T06:28:50.803Z,21.50
2018-06-19T06:29:22.828Z,21.50
2018-06-19T06:29:54.870Z,21.50
2018-06-19T06:30:26.887Z,21.60
2018-06-19T06:30:58.888Z,21.50
2018-06-19T06:31:30.899Z,21.50
2018-06-19T06:32:02.937Z,21.50
2018-06-19T06:32:34.950Z,21.50
2018-06-19T06:33:06.987Z,21.50
2018-06-19T06:33:38.994Z,21.60
2018-06-19T06:34:11.010Z,21.50
2018-06-19T06:34:43.033Z,21.50
2018-06-19T06:35:15.043Z,21.50
2018-06-19T06:35:47.063Z,21.50
2018-06-19T06:36:19.084Z,21.50
2018-06-19T06:36:51.089Z,21.60
2018-06-19T06:37:23.131Z,21.70
2018-06-19T06:37:55.135Z,21.80
2018-06-19T06:38:27.155Z,21.90
2018-06-19T06:38:59.169Z,21.90
2018-06-19T06:39:31.187Z,21.80
2018-06-19T06:40:03.202Z,21.80
2018-06-19T06:40:35.207Z,21.70
2018-06-19T06:41:07.223Z,21.70
2018-06-19T06:41:39.249Z,21.70
2018-06-19T06:42:11.256Z,21.70
2018-06-19T06:42:43.285Z,21.60
2018-06-19T06:43:15.307Z,21.60
2018-06-19T06:43:47.320Z,21.50
2018-06-19T06:44:19.351Z,21.50
2018-06-19T06:44:51.442Z,21.40
2018-06-19T06:45:23.405Z,21.50
2018-06-19T06:45:55.452Z,21.50
2018-06-19T06:46:27.462Z,21.60
2018-06-19T06:46:59.479Z,21.60
2018-06-19T06:47:31.503Z,21.60
2018-06-19T06:48:03.507Z,21.60
2018-06-19T06:48:35.546Z,21.60
2018-06-19T06:49:07.567Z,21.60
2018-06-19T06:49:39.587Z,21.60
2018-06-19T06:50:11.619Z,21.60
2018-06-19T06:50:43.623Z,21.60
2018-06-19T06:51:15.642Z,21.50
2018-06-19T06:51:47.685Z,21.50
2018-06-19T06:52:19.694Z,21.50
2018-06-19T06:52:51.690Z,21.60
2018-06-19T06:53:23.706Z,21.50
2018-06-19T06:53:55.720Z,21.50
2018-06-19T06:54:27.753Z,21.50